Time;durP1;ratioP1;P1;durP2;ratioP2;P2;SDS_P1;SDS_P2;PMS_P1;PMS_P2;Temp;Humidity;BMP_temperature;BMP_pressure;BME280_temperature;BME280_humidity;BME280_pressure;Samples;Min_cycle;Max_cycle;Signal;HPM_P1;HPM_P2
2023/03/10 00:01:21;;;;;;;1.58;0.70;;;;;;;6.99;100.00;99578.19;5044291;28;20053;-76
2023/03/10 00:03:49;;;;;;;0.30;0.30;;;;;;;6.97;100.00;99581.53;5039509;28;20677;-73
2023/03/10 00:06:21;;;;;;;1.40;0.40;;;;;;;6.96;100.00;99566.94;5043749;28;20048;-74
2023/03/10 00:08:50;;;;;;;0.80;0.43;;;;;;;6.96;100.00;99556.63;5044539;28;20049;-75
2023/03/10 00:11:20;;;;;;;0.68;0.43;;;;;;;6.90;100.00;99553.09;5037571;28;20286;-75
2023/03/10 00:13:49;;;;;;;1.23;0.40;;;;;;;6.90;100.00;99559.94;5034722;28;20052;-75
2023/03/10 00:16:20;;;;;;;0.88;0.40;;;;;;;6.86;100.00;99538.41;5046807;28;20048;-76
2023/03/10 00:18:49;;;;;;;0.82;0.50;;;;;;;6.88;100.00;99541.91;5055391;28;20048;-76
2023/03/10 00:21:19;;;;;;;0.30;0.30;;;;;;;6.87;100.00;99535.03;5045609;28;20117;-76
2023/03/10 00:23:49;;;;;;;1.13;0.52;;;;;;;6.87;100.00;99529.00;5046450;28;20034;-75
2023/03/10 00:26:19;;;;;;;1.23;0.43;;;;;;;6.87;100.00;99511.00;5045128;28;20049;-75
2023/03/10 00:28:48;;;;;;;1.15;0.57;;;;;;;6.88;100.00;99499.88;5043600;28;20052;-76
2023/03/10 00:31:19;;;;;;;2.05;0.65;;;;;;;6.88;100.00;99494.75;5044018;28;20778;-74
2023/03/10 00:33:48;;;;;;;0.90;0.35;;;;;;;6.88;100.00;99484.47;5055996;27;20058;-76
2023/03/10 00:36:18;;;;;;;2.97;0.57;;;;;;;6.84;100.00;99468.09;5053930;28;20056;-77
2023/03/10 00:38:49;;;;;;;1.17;0.40;;;;;;;6.90;100.00;99469.94;5052434;28;20052;-77
2023/03/10 00:41:19;;;;;;;1.17;0.50;;;;;;;6.90;100.00;99463.09;5043533;28;20128;-80
2023/03/10 00:43:48;;;;;;;0.70;0.38;;;;;;;6.90;100.00;99455.38;5041389;28;20044;-78
2023/03/10 00:46:17;;;;;;;0.60;0.55;;;;;;;6.90;100.00;99444.22;5037539;28;20049;-78
2023/03/10 00:48:46;;;;;;;1.13;0.60;;;;;;;6.87;100.00;99432.19;5052854;28;20052;-77
2023/03/10 00:51:14;;;;;;;0.75;0.40;;;;;;;6.86;100.00;99425.28;5042021;28;20045;-77
2023/03/10 00:53:43;;;;;;;2.40;0.73;;;;;;;6.83;100.00;99401.22;5045828;28;20068;-78
2023/03/10 00:56:15;;;;;;;0.90;0.50;;;;;;;6.82;100.00;99390.03;5046458;28;20091;-77
2023/03/10 00:58:44;;;;;;;1.67;0.70;;;;;;;6.78;100.00;99380.56;5045934;28;20084;-77
2023/03/10 01:01:15;;;;;;;1.42;0.57;;;;;;;6.76;100.00;99369.38;5049434;28;20102;-79
2023/03/10 01:03:44;;;;;;;3.38;0.55;;;;;;;6.74;100.00;99370.16;5044799;28;20049;-79
2023/03/10 01:06:13;;;;;;;0.70;0.55;;;;;;;6.72;100.00;99364.97;5043694;28;20049;-78
2023/03/10 01:08:42;;;;;;;0.82;0.57;;;;;;;6.69;100.00;99355.50;5047437;28;20057;-76
2023/03/10 01:11:14;;;;;;;1.77;0.60;;;;;;;6.69;100.00;99354.63;5045731;28;20555;-78
2023/03/10 01:13:43;;;;;;;0.93;0.77;;;;;;;6.68;100.00;99345.16;5045184;28;20053;-76
2023/03/10 01:16:11;;;;;;;1.92;1.00;;;;;;;6.65;100.00;99342.53;5044526;28;20052;-81
2023/03/10 01:18:40;;;;;;;0.55;0.45;;;;;;;6.62;100.00;99327.03;5049859;28;20674;-81
2023/03/10 01:21:15;;;;;;;1.10;0.50;;;;;;;6.60;100.00;99324.44;5053880;28;20113;-83
2023/03/10 01:23:43;;;;;;;2.95;0.85;;;;;;;6.59;100.00;99314.13;5046524;28;20585;-83
2023/03/10 01:26:13;;;;;;;0.55;0.22;;;;;;;6.55;100.00;99296.91;5044078;28;20564;-82
2023/03/10 01:28:42;;;;;;;1.20;0.70;;;;;;;6.50;100.00;99287.41;5056325;28;20087;-82
2023/03/10 01:31:11;;;;;;;0.52;0.20;;;;;;;6.46;100.00;99270.19;5049056;28;20049;-82
2023/03/10 01:33:40;;;;;;;0.90;0.40;;;;;;;6.37;100.00;99253.66;5043414;28;20053;-83
2023/03/10 01:36:09;;;;;;;0.70;0.45;;;;;;;6.38;100.00;99256.28;5045493;28;20094;-84
2023/03/10 01:38:38;;;;;;;0.30;0.30;;;;;;;6.33;100.00;99241.63;5044590;28;20254;-82
2023/03/10 01:41:07;;;;;;;0.50;0.20;;;;;;;6.27;100.00;99239.75;5048096;28;20059;-85
2023/03/10 01:43:38;;;;;;;0.45;0.40;;;;;;;6.24;100.00;99224.28;5045242;28;21125;-84
2023/03/10 01:46:37;;;;;;;0.30;0.30;;;;;;;6.20;100.00;99207.06;5051705;28;20106;-82
2023/03/10 01:49:13;;;;;;;0.22;0.20;;;;;;;6.12;100.00;99193.22;5040069;28;20049;-84
2023/03/10 01:51:44;;;;;;;3.22;0.60;;;;;;;6.06;100.00;99176.81;5052561;28;20057;-83
2023/03/10 01:54:17;;;;;;;1.38;0.65;;;;;;;6.01;100.00;99163.00;5048992;28;20045;-84
2023/03/10 01:56:47;;;;;;;0.68;0.28;;;;;;;5.97;100.00;99162.91;5050286;28;20049;-86
2023/03/10 01:59:19;;;;;;;0.47;0.38;;;;;;;5.94;100.00;99150.88;5050945;28;20058;-85
2023/03/10 02:01:49;;;;;;;0.65;0.50;;;;;;;5.91;100.00;99145.66;5056069;28;20052;-82
2023/03/10 02:04:22;;;;;;;0.90;0.50;;;;;;;5.88;100.00;99140.44;5051381;28;20055;-85
2023/03/10 02:06:52;;;;;;;1.35;0.95;;;;;;;5.85;100.00;99137.81;5049833;28;20123;-85
2023/03/10 02:09:21;;;;;;;1.42;0.55;;;;;;;5.83;100.00;99124.06;5041599;28;20127;-84
2023/03/10 02:11:50;;;;;;;0.77;0.40;;;;;;;5.83;100.00;99111.25;5051741;28;20037;-85
2023/03/10 02:14:21;;;;;;;3.65;0.57;;;;;;;5.80;100.00;99100.91;5056270;28;20107;-85
2023/03/10 02:16:50;;;;;;;0.88;0.30;;;;;;;5.76;100.00;99088.84;5046948;28;20071;-84
2023/03/10 02:19:37;;;;;;;4.05;0.40;;;;;;;5.74;100.00;99082.81;5056004;28;20053;-84
2023/03/10 02:22:14;;;;;;;1.00;0.30;;;;;;;5.73;100.00;99088.78;5053860;28;20053;-83
2023/03/10 02:24:51;;;;;;;0.63;0.28;;;;;;;5.70;100.00;99069.03;5049672;28;20053;-83
2023/03/10 02:27:24;;;;;;;0.25;0.20;;;;;;;5.66;100.00;99069.81;5048151;28;20056;-84
2023/03/10 02:29:59;;;;;;;0.68;0.55;;;;;;;5.62;100.00;99063.75;5053948;28;20575;-84
2023/03/10 02:32:31;;;;;;;0.80;0.32;;;;;;;5.62;100.00;99053.47;5048036;28;20150;-85
2023/03/10 02:35:00;;;;;;;0.55;0.28;;;;;;;5.61;100.00;99049.19;5049710;28;20381;-83
2023/03/10 02:37:30;;;;;;;0.70;0.20;;;;;;;5.60;100.00;99052.56;5048776;28;20091;-83
2023/03/10 02:39:59;;;;;;;0.30;0.30;;;;;;;5.58;100.00;99043.97;5048076;28;20049;-82
2023/03/10 02:42:34;;;;;;;0.63;0.20;;;;;;;5.59;100.00;99040.59;5043601;28;20052;-81
2023/03/10 02:45:04;;;;;;;0.20;0.17;;;;;;;5.59;100.00;99030.31;5059159;28;20053;-82
2023/03/10 02:47:33;;;;;;;1.52;0.30;;;;;;;5.58;100.00;99013.19;5044055;28;20076;-84
2023/03/10 02:50:01;;;;;;;0.40;0.38;;;;;;;5.58;100.00;99015.75;5041075;28;20041;-83
2023/03/10 02:52:35;;;;;;;0.25;0.25;;;;;;;5.58;100.00;99004.63;5049573;28;20072;-84
2023/03/10 02:55:04;;;;;;;0.70;0.20;;;;;;;5.56;100.00;98993.47;5045308;28;20041;-83
2023/03/10 02:57:34;;;;;;;0.55;0.30;;;;;;;5.55;100.00;98976.34;5048445;28;20399;-84
2023/03/10 03:00:03;;;;;;;0.95;0.30;;;;;;;5.53;100.00;98972.88;5048011;28;20049;-83
2023/03/10 03:02:32;;;;;;;0.88;0.47;;;;;;;5.53;100.00;98960.06;5046586;28;20040;-83
2023/03/10 03:05:01;;;;;;;0.70;0.20;;;;;;;5.52;100.00;98956.63;5050889;28;20052;-84
2023/03/10 03:07:29;;;;;;;2.13;0.50;;;;;;;5.50;100.00;98932.66;5047293;28;20053;-84
2023/03/10 03:09:58;;;;;;;0.50;0.25;;;;;;;5.51;100.00;98931.78;5049739;28;20114;-82
2023/03/10 03:12:26;;;;;;;2.40;0.43;;;;;;;5.48;100.00;98923.19;5054407;28;20056;-83
2023/03/10 03:14:56;;;;;;;0.15;0.13;;;;;;;5.47;100.00;98917.16;5050018;28;20048;-83
2023/03/10 03:17:25;;;;;;;0.70;0.35;;;;;;;5.46;100.00;98916.31;5056388;28;20098;-85
2023/03/10 03:19:53;;;;;;;0.40;0.30;;;;;;;5.45;100.00;98913.69;5048478;28;20053;-83
2023/03/10 03:22:22;;;;;;;0.43;0.30;;;;;;;5.46;100.00;98905.19;5055864;28;20043;-83
2023/03/10 03:24:50;;;;;;;0.80;0.38;;;;;;;5.48;100.00;98897.53;5046653;28;20049;-82
2023/03/10 03:27:19;;;;;;;2.05;0.47;;;;;;;5.47;100.00;98901.78;5045879;28;20102;-80
2023/03/10 03:29:47;;;;;;;0.32;0.30;;;;;;;5.49;100.00;98899.25;5045770;28;20048;-81
2023/03/10 03:32:18;;;;;;;1.75;0.43;;;;;;;5.44;100.00;98883.78;5054607;28;20193;-81
2023/03/10 03:34:46;;;;;;;0.85;0.30;;;;;;;5.43;100.00;98874.38;5050745;28;20056;-83
2023/03/10 03:37:15;;;;;;;3.10;0.40;;;;;;;5.43;100.00;98864.09;5052577;28;20087;-84
2023/03/10 03:39:43;;;;;;;1.77;0.40;;;;;;;5.45;100.00;98868.44;5050039;28;20609;-84
2023/03/10 03:42:12;;;;;;;0.50;0.40;;;;;;;5.49;100.00;98858.22;5050848;28;20041;-83
2023/03/10 03:44:40;;;;;;;0.68;0.38;;;;;;;5.52;100.00;98848.91;5051835;28;20040;-83
2023/03/10 03:47:09;;;;;;;3.42;0.40;;;;;;;5.54;100.00;98846.34;5051649;28;21005;-82
2023/03/10 03:49:40;;;;;;;0.20;0.20;;;;;;;5.56;100.00;98840.38;5048169;28;21220;-83
2023/03/10 03:52:09;;;;;;;1.50;0.43;;;;;;;5.57;100.00;98836.16;5048620;28;20103;-83
2023/03/10 03:54:37;;;;;;;0.65;0.30;;;;;;;5.58;100.00;98828.47;5050453;28;20656;-83
2023/03/10 03:57:06;;;;;;;0.22;0.13;;;;;;;5.60;100.00;98815.66;5050725;28;20560;-82
2023/03/10 03:59:34;;;;;;;0.63;0.20;;;;;;;5.61;100.00;98810.59;5050375;28;20130;-84
2023/03/10 04:02:03;;;;;;;0.77;0.55;;;;;;;5.62;100.00;98798.59;5049409;28;20719;-83
2023/03/10 04:04:31;;;;;;;1.08;0.50;;;;;;;5.62;100.00;98789.19;5049961;28;20626;-83
2023/03/10 04:07:01;;;;;;;0.55;0.30;;;;;;;5.63;100.00;98780.66;5054712;28;20044;-82
2023/03/10 04:09:30;;;;;;;0.22;0.20;;;;;;;5.63;100.00;98785.78;5047876;28;20060;-82
2023/03/10 04:11:59;;;;;;;1.05;0.28;;;;;;;5.65;100.00;98768.72;5047827;28;20044;-85
2023/03/10 04:14:27;;;;;;;0.77;0.40;;;;;;;5.66;100.00;98760.19;5044486;28;20041;-84
2023/03/10 04:16:56;;;;;;;0.95;0.43;;;;;;;5.64;100.00;98751.59;5047019;28;20532;-84
2023/03/10 04:19:24;;;;;;;0.68;0.40;;;;;;;5.60;100.00;98747.25;5052270;28;20110;-81
2023/03/10 04:22:04;;;;;;;0.38;0.28;;;;;;;5.55;100.00;98741.19;5048482;28;20075;-83
2023/03/10 04:24:32;;;;;;;0.10;0.10;;;;;;;5.58;100.00;98740.38;5052693;28;20045;-82
2023/03/10 04:27:01;;;;;;;0.30;0.20;;;;;;;5.62;100.00;98724.19;5048593;28;20037;-79
2023/03/10 04:29:29;;;;;;;0.10;0.10;;;;;;;5.65;100.00;98717.41;5049674;28;20040;-78
2023/03/10 04:31:58;;;;;;;0.73;0.40;;;;;;;5.66;100.00;98710.59;5049512;28;20139;-82
2023/03/10 04:34:33;;;;;;;0.98;0.40;;;;;;;5.66;100.00;98698.63;5041916;27;20122;-79
2023/03/10 04:37:10;;;;;;;0.70;0.65;;;;;;;5.67;100.00;98692.63;5046775;28;20063;-80
2023/03/10 04:39:39;;;;;;;0.50;0.40;;;;;;;5.69;100.00;98689.25;5038350;28;20057;-80
2023/03/10 04:42:08;;;;;;;0.55;0.30;;;;;;;5.64;100.00;98674.63;5037012;28;20547;-80
2023/03/10 04:44:37;;;;;;;0.63;0.40;;;;;;;5.65;100.00;98678.91;5049284;28;20668;-80
2023/03/10 04:47:05;;;;;;;0.30;0.28;;;;;;;5.64;100.00;98666.09;5043000;28;20049;-81
2023/03/10 04:49:34;;;;;;;0.57;0.50;;;;;;;5.64;100.00;98654.13;5048107;28;20631;-84
2023/03/10 04:52:02;;;;;;;0.98;0.40;;;;;;;5.64;100.00;98643.00;5046222;28;20045;-83
2023/03/10 04:54:32;;;;;;;0.73;0.40;;;;;;;5.64;100.00;98635.31;5038943;28;20063;-82
2023/03/10 04:57:02;;;;;;;0.75;0.30;;;;;;;5.64;100.00;98643.84;5040670;28;20053;-83
2023/03/10 04:59:30;;;;;;;0.38;0.30;;;;;;;5.64;100.00;98638.72;5040490;28;20107;-81
2023/03/10 05:01:59;;;;;;;0.45;0.35;;;;;;;5.64;100.00;98638.72;5043440;28;20059;-79
2023/03/10 05:04:27;;;;;;;0.32;0.32;;;;;;;5.63;100.00;98644.66;5041991;28;20124;-83
2023/03/10 05:06:56;;;;;;;0.40;0.30;;;;;;;5.62;100.00;98645.53;5040318;28;20624;-80
2023/03/10 05:09:24;;;;;;;0.32;0.20;;;;;;;5.63;100.00;98631.84;5045504;28;20052;-84
2023/03/10 05:11:55;;;;;;;0.60;0.30;;;;;;;5.64;100.00;98633.59;5041747;28;20674;-81
2023/03/10 05:14:23;;;;;;;0.38;0.20;;;;;;;5.64;100.00;98627.59;5048987;28;20049;-84
2023/03/10 05:16:52;;;;;;;0.60;0.30;;;;;;;5.63;100.00;98620.72;5044208;28;20049;-79
2023/03/10 05:19:20;;;;;;;1.00;0.47;;;;;;;5.64;100.00;98613.06;5061363;28;20056;-79
2023/03/10 05:21:49;;;;;;;1.38;0.30;;;;;;;5.64;100.00;98602.81;5042466;28;20506;-79
2023/03/10 05:24:17;;;;;;;1.20;0.40;;;;;;;5.65;100.00;98596.81;5045524;28;20707;-80
2023/03/10 05:26:46;;;;;;;1.70;0.38;;;;;;;5.66;100.00;98590.88;5042460;28;20111;-81
2023/03/10 05:29:16;;;;;;;0.43;0.32;;;;;;;5.67;100.00;98596.84;5043592;28;20086;-80
2023/03/10 05:31:44;;;;;;;0.30;0.20;;;;;;;5.65;100.00;98590.84;5045281;28;20111;-78
2023/03/10 05:34:13;;;;;;;1.23;0.50;;;;;;;5.66;100.00;98592.56;5044618;28;20538;-79
2023/03/10 05:36:42;;;;;;;0.60;0.20;;;;;;;5.65;100.00;98575.44;5051738;28;20041;-79
2023/03/10 05:39:11;;;;;;;0.10;0.10;;;;;;;5.65;100.00;98578.00;5044407;28;20545;-80
2023/03/10 05:41:40;;;;;;;0.73;0.40;;;;;;;5.67;100.00;98564.34;5040377;28;20051;-79
2023/03/10 05:44:08;;;;;;;0.10;0.10;;;;;;;5.70;100.00;98552.41;5052576;28;20080;-78
2023/03/10 05:46:38;;;;;;;0.70;0.22;;;;;;;5.74;100.00;98556.75;5052159;28;20059;-79
2023/03/10 05:49:07;;;;;;;0.13;0.13;;;;;;;5.74;100.00;98551.63;5045832;28;20083;-78
2023/03/10 05:51:35;;;;;;;0.28;0.28;;;;;;;5.74;100.00;98546.47;5048446;28;20526;-79
2023/03/10 05:54:05;;;;;;;0.40;0.10;;;;;;;5.73;100.00;98549.91;5058272;28;20053;-79
2023/03/10 05:56:33;;;;;;;3.30;0.30;;;;;;;5.72;100.00;98532.78;5052912;28;20037;-79
2023/03/10 05:59:02;;;;;;;0.65;0.40;;;;;;;5.71;100.00;98518.22;5056663;28;20505;-82
2023/03/10 06:01:31;;;;;;;0.32;0.20;;;;;;;5.72;100.00;98501.97;5045300;28;20511;-79
2023/03/10 06:04:01;;;;;;;0.38;0.15;;;;;;;5.72;100.00;98504.53;5048395;28;20052;-79
2023/03/10 06:06:30;;;;;;;0.40;0.30;;;;;;;5.69;100.00;98489.13;5046635;28;20064;-79
2023/03/10 06:08:58;;;;;;;0.47;0.20;;;;;;;5.69;100.00;98501.94;5049447;28;20559;-80
2023/03/10 06:11:27;;;;;;;0.77;0.50;;;;;;;5.62;100.00;98509.56;5048598;28;20527;-79
2023/03/10 06:13:56;;;;;;;0.40;0.30;;;;;;;5.58;100.00;98501.81;5043784;28;20110;-82
2023/03/10 06:16:25;;;;;;;0.65;0.47;;;;;;;5.56;100.00;98506.91;5046750;28;20053;-80
2023/03/10 06:18:55;;;;;;;0.60;0.40;;;;;;;5.58;100.00;98509.50;5058796;28;20458;-78
2023/03/10 06:21:27;;;;;;;0.38;0.38;;;;;;;5.60;100.00;98500.13;5050455;28;20147;-79
2023/03/10 06:23:55;;;;;;;0.22;0.10;;;;;;;5.62;100.00;98491.59;5048803;28;20045;-82
2023/03/10 06:26:24;;;;;;;0.52;0.30;;;;;;;5.64;100.00;98497.63;5049450;28;20105;-81
2023/03/10 06:28:53;;;;;;;0.95;0.30;;;;;;;5.65;100.00;98507.03;5050209;28;20045;-79
2023/03/10 06:31:23;;;;;;;0.15;0.10;;;;;;;5.69;100.00;98504.50;5054709;28;20052;-80
2023/03/10 06:33:52;;;;;;;0.20;0.20;;;;;;;5.73;100.00;98504.56;5058667;27;20569;-84
2023/03/10 06:36:22;;;;;;;0.00;0.00;;;;;;;5.74;100.00;98506.28;5046411;28;20061;-84
2023/03/10 06:38:53;;;;;;;0.57;0.38;;;;;;;5.74;100.00;98513.13;5045191;28;20047;-81
2023/03/10 06:41:22;;;;;;;0.43;0.20;;;;;;;5.77;100.00;98510.59;5048334;28;20803;-77
2023/03/10 06:43:50;;;;;;;0.70;0.20;;;;;;;5.80;100.00;98505.50;5054457;28;20094;-79
2023/03/10 06:46:19;;;;;;;2.88;0.28;;;;;;;5.83;100.00;98524.34;5046979;28;20041;-80
2023/03/10 06:48:47;;;;;;;0.40;0.30;;;;;;;5.90;100.00;98521.88;5044781;28;20621;-78
2023/03/10 06:51:18;;;;;;;0.15;0.15;;;;;;;5.96;100.00;98539.97;5046855;28;20053;-80
2023/03/10 06:53:48;;;;;;;1.08;0.50;;;;;;;6.02;100.00;98529.75;5049337;28;20102;-80
2023/03/10 06:56:19;;;;;;;0.65;0.40;;;;;;;6.07;100.00;98526.41;5047897;28;20102;-80
2023/03/10 06:58:49;;;;;;;0.10;0.10;;;;;;;6.11;100.00;98522.16;5045208;28;20049;-78
2023/03/10 07:01:26;;;;;;;0.73;0.30;;;;;;;6.20;100.00;98544.50;5054430;28;20049;-78
2023/03/10 07:03:55;;;;;;;0.17;0.17;;;;;;;6.22;100.00;98550.53;5046179;28;20052;-78
2023/03/10 07:06:24;;;;;;;0.20;0.20;;;;;;;6.26;100.00;98560.84;5046100;28;20099;-78
2023/03/10 07:08:54;;;;;;;1.00;0.20;;;;;;;6.31;100.00;98557.47;5051285;28;20048;-79
2023/03/10 07:11:26;;;;;;;1.05;0.20;;;;;;;6.36;100.00;98574.66;5046286;28;20076;-79
2023/03/10 07:13:55;;;;;;;0.20;0.20;;;;;;;6.39;100.00;98590.13;5051049;28;20099;-83
2023/03/10 07:16:24;;;;;;;0.32;0.10;;;;;;;6.43;100.00;98602.13;5048940;28;20122;-82
2023/03/10 07:18:52;;;;;;;0.10;0.00;;;;;;;6.41;100.00;98583.25;5051353;28;20124;-82
2023/03/10 07:21:22;;;;;;;0.30;0.30;;;;;;;6.47;100.00;98597.91;5057050;28;20053;-81
2023/03/10 07:23:51;;;;;;;0.10;0.10;;;;;;;6.49;100.00;98606.50;5052662;28;20040;-82
2023/03/10 07:26:19;;;;;;;0.13;0.10;;;;;;;6.54;100.00;98621.97;5057672;28;20098;-85
2023/03/10 07:28:49;;;;;;;0.05;0.05;;;;;;;6.55;100.00;98626.25;5051057;28;20056;-81
2023/03/10 07:31:18;;;;;;;2.60;0.28;;;;;;;6.58;100.00;98647.72;5053049;28;20056;-83
2023/03/10 07:33:48;;;;;;;0.30;0.15;;;;;;;6.58;100.00;98641.72;5048359;27;20061;-81
2023/03/10 07:36:18;;;;;;;0.32;0.10;;;;;;;6.55;100.00;98587.69;5045579;28;20049;-84
2023/03/10 07:38:47;;;;;;;1.15;0.57;;;;;;;6.56;100.00;98564.59;5048818;28;20040;-81
2023/03/10 07:41:17;;;;;;;0.25;0.10;;;;;;;6.54;100.00;98591.13;5043213;28;20049;-80
2023/03/10 07:43:46;;;;;;;0.70;0.22;;;;;;;6.50;100.00;98615.91;5051190;28;20045;-81
2023/03/10 07:46:16;;;;;;;0.30;0.30;;;;;;;6.47;100.00;98609.03;5047299;28;20491;-83
2023/03/10 07:48:45;;;;;;;0.80;0.40;;;;;;;6.47;100.00;98614.16;5054460;28;20418;-82
2023/03/10 07:51:14;;;;;;;0.20;0.20;;;;;;;6.49;100.00;98601.34;5052869;28;20061;-83
2023/03/10 07:53:42;;;;;;;0.32;0.13;;;;;;;6.53;100.00;98579.09;5044189;28;20041;-83
2023/03/10 07:56:12;;;;;;;0.10;0.10;;;;;;;6.55;100.00;98610.81;5051999;28;20049;-80
2023/03/10 07:58:41;;;;;;;0.38;0.30;;;;;;;6.52;100.00;98641.63;5052896;28;20137;-80
2023/03/10 08:01:15;;;;;;;0.10;0.10;;;;;;;6.47;100.00;98636.44;5047014;28;20045;-83
2023/03/10 08:03:45;;;;;;;0.38;0.30;;;;;;;6.42;100.00;98648.38;5048488;28;20492;-81
2023/03/10 08:06:18;;;;;;;0.80;0.30;;;;;;;6.42;100.00;98661.22;5047842;28;20494;-80
2023/03/10 08:08:46;;;;;;;;;;;;;;;6.42;100.00;98662.06;5047233;28;20056;-82
2023/03/10 08:11:14;;;;;;;0.10;0.10;;;;;;;6.37;100.00;98675.69;5046019;28;19924;-81
2023/03/10 08:13:44;;;;;;;0.60;0.50;;;;;;;6.34;100.00;98688.50;5046198;28;20112;-83
2023/03/10 08:16:12;;;;;;;0.93;0.30;;;;;;;6.33;100.00;98694.50;5047343;28;20045;-82
2023/03/10 08:18:41;;;;;;;1.23;0.40;;;;;;;6.32;100.00;98698.75;5050789;28;20518;-82
2023/03/10 08:21:12;;;;;;;0.75;0.52;;;;;;;6.29;100.00;98701.28;5052618;28;20041;-81
2023/03/10 08:23:40;;;;;;;1.02;0.50;;;;;;;6.24;100.00;98708.06;5044182;28;20072;-81
2023/03/10 08:26:11;;;;;;;0.85;0.68;;;;;;;6.19;100.00;98715.72;5052344;28;20048;-82
2023/03/10 08:28:40;;;;;;;4.65;0.55;;;;;;;6.11;100.00;98719.00;5047817;28;20053;-82
2023/03/10 08:31:17;;;;;;;1.98;0.50;;;;;;;6.02;100.00;98723.16;5051129;28;20061;-80
2023/03/10 08:33:46;;;;;;;1.00;0.60;;;;;;;5.97;100.00;98736.75;5051707;28;20099;-84
2023/03/10 08:36:19;;;;;;;1.15;0.73;;;;;;;5.93;100.00;98735.81;5046235;28;20050;-85
2023/03/10 08:38:47;;;;;;;;;;;;;;;5.73;100.00;98732.09;5051095;28;20048;-83
2023/03/10 08:41:18;;;;;;;2.50;0.30;;;;;;;5.74;100.00;98749.19;5050608;28;19932;-85
2023/03/10 08:43:49;;;;;;;0.65;0.45;;;;;;;5.72;100.00;98749.16;5051730;28;20246;-83
2023/03/10 08:46:18;;;;;;;0.65;0.32;;;;;;;5.62;100.00;98755.84;5054149;28;20135;-84
2023/03/10 08:48:47;;;;;;;0.63;0.30;;;;;;;5.59;100.00;98762.63;5050107;28;20052;-83
2023/03/10 08:51:18;;;;;;;0.40;0.20;;;;;;;5.54;100.00;98759.97;5049523;28;20056;-81
2023/03/10 08:53:47;;;;;;;2.47;0.30;;;;;;;5.54;100.00;98767.66;5053668;28;20040;-83
2023/03/10 08:56:17;;;;;;;1.65;0.20;;;;;;;5.52;100.00;98771.03;5048539;28;20117;-83
2023/03/10 08:58:45;;;;;;;0.40;0.20;;;;;;;5.42;100.00;98765.75;5058021;28;20052;-84
2023/03/10 09:01:14;;;;;;;0.77;0.47;;;;;;;5.44;100.00;98784.59;5047784;28;20661;-83
2023/03/10 09:03:44;;;;;;;1.08;0.32;;;;;;;5.38;100.00;98791.31;5047262;28;20045;-82
2023/03/10 09:06:13;;;;;;;0.73;0.20;;;;;;;5.32;100.00;98799.78;5048226;28;20555;-83
2023/03/10 09:08:44;;;;;;;0.70;0.32;;;;;;;5.28;100.00;98803.09;5049502;28;20195;-82
2023/03/10 09:11:17;;;;;;;0.47;0.10;;;;;;;5.23;100.00;98805.59;5047458;28;20056;-84
2023/03/10 09:13:45;;;;;;;1.00;0.60;;;;;;;5.19;100.00;98813.19;5052464;28;20057;-83
2023/03/10 09:16:14;;;;;;;0.30;0.20;;;;;;;5.13;100.00;98815.63;5051991;28;20499;-82
2023/03/10 09:18:43;;;;;;;0.20;0.10;;;;;;;5.12;100.00;98821.59;5048527;28;20080;-83
2023/03/10 09:21:13;;;;;;;0.22;0.20;;;;;;;5.10;100.00;98818.13;5055615;28;20045;-87
2023/03/10 09:23:45;;;;;;;0.25;0.10;;;;;;;5.08;100.00;98820.66;5050873;28;20059;-83
2023/03/10 09:26:14;;;;;;;0.20;0.20;;;;;;;5.00;100.00;98820.50;5060358;28;20142;-85
2023/03/10 09:28:42;;;;;;;0.00;0.00;;;;;;;4.98;100.00;98819.59;5059586;28;20045;-85
2023/03/10 09:31:17;;;;;;;0.70;0.05;;;;;;;4.96;100.00;98822.97;5058384;28;20933;-85
2023/03/10 09:33:46;;;;;;;1.02;0.10;;;;;;;4.94;100.00;98827.19;5054876;27;20077;-84
2023/03/10 09:36:14;;;;;;;0.10;0.10;;;;;;;4.97;100.00;98827.25;5065447;28;20040;-84
2023/03/10 09:38:43;;;;;;;0.00;0.00;;;;;;;4.96;100.00;98825.53;5056981;28;20482;-85
2023/03/10 09:41:40;;;;;;;0.00;0.00;;;;;;;4.95;100.00;98828.94;5056392;28;20048;-84
2023/03/10 09:44:23;;;;;;;0.10;0.10;;;;;;;4.97;100.00;98827.25;5060780;28;20094;-86
2023/03/10 09:47:04;;;;;;;0.10;0.05;;;;;;;4.99;100.00;98829.03;5060398;28;20416;-88
2023/03/10 09:49:36;;;;;;;0.13;0.10;;;;;;;4.99;100.00;98825.59;5053635;28;20049;-86
2023/03/10 09:52:20;;;;;;;0.00;0.00;;;;;;;4.97;100.00;98827.25;5059067;28;20053;-85
2023/03/10 09:54:58;;;;;;;0.00;0.00;;;;;;;5.02;100.00;98830.81;5057280;28;20053;-83
2023/03/10 09:57:30;;;;;;;0.03;0.00;;;;;;;5.00;100.00;98819.66;5057000;28;20223;-83
2023/03/10 10:00:04;;;;;;;0.00;0.00;;;;;;;5.06;100.00;98822.31;5054291;28;20201;-83
2023/03/10 10:02:37;;;;;;;0.20;0.10;;;;;;;5.05;100.00;98828.28;5051783;28;20124;-84
2023/03/10 10:05:07;;;;;;;;;;;;;;;5.02;100.00;98821.41;5056728;28;20135;-83
2023/03/10 10:07:44;;;;;;;0.30;0.20;;;;;;;5.04;100.00;98824.88;5054710;28;19924;-84
2023/03/10 10:10:19;;;;;;;0.10;0.10;;;;;;;5.07;100.00;98825.78;5056857;28;20743;-83
2023/03/10 10:12:53;;;;;;;0.00;0.00;;;;;;;5.08;100.00;98820.66;5057756;28;20083;-84
2023/03/10 10:15:24;;;;;;;0.68;0.15;;;;;;;5.11;100.00;98825.84;5054723;28;20049;-83
2023/03/10 10:18:04;;;;;;;0.00;0.00;;;;;;;5.12;100.00;98827.56;5053760;28;20115;-83
2023/03/10 10:20:37;;;;;;;0.00;0.00;;;;;;;5.14;100.00;98825.06;5053684;28;20064;-80
2023/03/10 10:23:14;;;;;;;0.20;0.10;;;;;;;5.07;100.00;98825.78;5051626;28;20045;-86
2023/03/10 10:25:42;;;;;;;0.00;0.00;;;;;;;5.10;100.00;98831.81;5058190;28;20048;-84
2023/03/10 10:28:24;;;;;;;0.00;0.00;;;;;;;5.14;100.00;98831.03;5050094;28;20041;-84
2023/03/10 10:30:52;;;;;;;0.10;0.10;;;;;;;5.14;100.00;98832.75;5057320;28;20044;-82
2023/03/10 10:33:21;;;;;;;0.43;0.20;;;;;;;5.18;100.00;98831.97;5051683;27;20083;-82
2023/03/10 10:36:04;;;;;;;0.10;0.10;;;;;;;5.18;100.00;98827.72;5051416;28;20049;-84
2023/03/10 10:38:34;;;;;;;0.00;0.00;;;;;;;5.13;100.00;98823.31;5051008;28;20568;-81
2023/03/10 10:41:05;;;;;;;0.10;0.10;;;;;;;5.11;100.00;98828.44;5047444;28;20059;-82
2023/03/10 10:43:42;;;;;;;0.03;0.03;;;;;;;5.15;100.00;98821.66;5046645;28;20045;-82
2023/03/10 10:46:13;;;;;;;0.60;0.20;;;;;;;5.10;100.00;98813.84;5052844;28;20690;-84
2023/03/10 10:48:50;;;;;;;0.00;0.00;;;;;;;5.16;100.00;98814.00;5051855;28;20119;-82
2023/03/10 10:51:27;;;;;;;0.20;0.10;;;;;;;5.15;100.00;98814.81;5045975;28;20087;-84
2023/03/10 10:53:56;;;;;;;0.13;0.10;;;;;;;5.11;100.00;98815.59;5051027;28;20136;-82
2023/03/10 10:56:27;;;;;;;0.20;0.10;;;;;;;5.08;100.00;98810.41;5048812;28;20463;-85
2023/03/10 10:59:06;;;;;;;0.30;0.10;;;;;;;5.08;100.00;98809.53;5048514;28;20053;-81
2023/03/10 11:01:53;;;;;;;0.00;0.00;;;;;;;5.11;100.00;98805.34;5053232;28;20045;-82
2023/03/10 11:04:22;;;;;;;0.08;0.00;;;;;;;5.09;100.00;98813.84;5057608;28;20110;-82
2023/03/10 11:06:51;;;;;;;0.40;0.00;;;;;;;5.04;100.00;98813.75;5050336;28;20045;-81
2023/03/10 11:09:21;;;;;;;0.30;0.30;;;;;;;5.06;100.00;98822.31;5046973;28;20495;-80
2023/03/10 11:12:02;;;;;;;0.10;0.03;;;;;;;5.09;100.00;98822.41;5050422;28;20114;-82
2023/03/10 11:14:48;;;;;;;0.00;0.00;;;;;;;5.12;100.00;98824.16;5051540;28;20103;-81
2023/03/10 11:17:23;;;;;;;0.30;0.20;;;;;;;5.11;100.00;98825.84;5046385;28;20047;-81
2023/03/10 11:20:10;;;;;;;0.32;0.13;;;;;;;5.10;100.00;98824.13;5047561;28;20045;-81
2023/03/10 11:22:42;;;;;;;0.20;0.10;;;;;;;5.11;100.00;98820.72;5053709;28;20494;-82
2023/03/10 11:25:24;;;;;;;0.05;0.05;;;;;;;5.10;100.00;98813.00;5051282;28;20045;-81
2023/03/10 11:28:05;;;;;;;0.00;0.00;;;;;;;5.09;100.00;98817.28;5050529;28;20099;-81
2023/03/10 11:30:36;;;;;;;0.00;0.00;;;;;;;5.01;100.00;98801.72;5051058;28;20385;-84
2023/03/10 11:33:14;;;;;;;0.00;0.00;;;;;;;5.00;100.00;98807.69;5050949;27;20044;-83
2023/03/10 11:35:45;;;;;;;0.00;0.00;;;;;;;5.00;100.00;98811.97;5028900;28;20076;-81
2023/03/10 11:38:28;;;;;;;0.38;0.10;;;;;;;4.98;100.00;98818.75;5027933;28;20075;-82
2023/03/10 11:41:01;;;;;;;0.55;0.10;;;;;;;4.94;100.00;98825.50;5027626;28;20081;-83
2023/03/10 11:43:38;;;;;;;0.00;0.00;;;;;;;4.93;100.00;98822.91;5023437;28;20081;-81
2023/03/10 11:46:14;;;;;;;0.00;0.00;;;;;;;4.92;100.00;98828.84;5028448;28;20041;-82
2023/03/10 11:49:03;;;;;;;2.55;0.35;;;;;;;4.95;100.00;98828.94;5027199;28;20041;-81
2023/03/10 11:51:37;;;;;;;0.10;0.10;;;;;;;4.98;100.00;98829.84;5027060;28;20553;-81